Time;durP1;ratioP1;P1;durP2;ratioP2;P2;SDS_P1;SDS_P2;PMS_P1;PMS_P2;Temp;Humidity;BMP_temperature;BMP_pressure;BME280_temperature;BME280_humidity;BME280_pressure;Samples;Min_cycle;Max_cycle;Signal;HPM_P1;HPM_P2
2022/09/29 00:01:10;;;;;;;7.67;6.80;;;;;;;;;;5052667;28;21229;-44
2022/09/29 00:03:37;;;;;;;11.80;7.37;;;;;;;;;;5053105;28;20692;-44
2022/09/29 00:06:03;;;;;;;7.90;7.20;;;;;;;;;;5054321;28;20451;-44
2022/09/29 00:08:30;;;;;;;7.40;6.50;;;;;;;;;;5054117;28;20466;-44
2022/09/29 00:10:56;;;;;;;8.70;7.30;;;;;;;;;;5051514;28;20482;-44
2022/09/29 00:13:23;;;;;;;8.73;7.40;;;;;;;;;;5053460;28;20838;-44
2022/09/29 00:15:56;;;;;;;9.87;8.10;;;;;;;;;;5052107;28;20434;-44
2022/09/29 00:18:22;;;;;;;10.10;8.30;;;;;;;;;;5053905;28;20434;-44
2022/09/29 00:20:56;;;;;;;9.07;8.10;;;;;;;;;;5052332;28;20493;-44
2022/09/29 00:23:23;;;;;;;8.20;7.03;;;;;;;;;;5053657;28;20434;-44
2022/09/29 00:25:49;;;;;;;7.67;6.90;;;;;;;;;;5051444;28;20462;-44
2022/09/29 00:28:15;;;;;;;8.53;7.30;;;;;;;;;;5053829;28;20430;-44
2022/09/29 00:30:41;;;;;;;9.47;7.37;;;;;;;;;;5053462;28;20533;-44
2022/09/29 00:33:07;;;;;;;8.13;7.33;;;;;;;;;;5053763;28;20197;-43
2022/09/29 00:35:33;;;;;;;8.27;7.27;;;;;;;;;;5053802;28;20785;-43
2022/09/29 00:38:00;;;;;;;8.67;7.63;;;;;;;;;;5053896;28;20251;-43
2022/09/29 00:40:26;;;;;;;7.17;6.50;;;;;;;;;;5053565;28;20206;-44
2022/09/29 00:42:52;;;;;;;10.77;7.47;;;;;;;;;;5053771;28;20506;-43
2022/09/29 00:45:20;;;;;;;9.37;7.50;;;;;;;;;;5053655;28;20734;-44
2022/09/29 00:47:49;;;;;;;8.03;7.23;;;;;;;;;;5053606;28;20427;-44
2022/09/29 00:50:17;;;;;;;9.97;8.60;;;;;;;;;;5053409;28;20505;-44
2022/09/29 00:52:45;;;;;;;9.30;8.30;;;;;;;;;;5053454;28;20431;-45
2022/09/29 00:55:16;;;;;;;8.63;7.73;;;;;;;;;;5052805;28;20869;-44
2022/09/29 00:57:44;;;;;;;9.27;8.27;;;;;;;;;;5053269;28;20443;-44
2022/09/29 01:00:13;;;;;;;11.70;8.70;;;;;;;;;;5051247;28;20473;-44
2022/09/29 01:02:40;;;;;;;9.87;8.87;;;;;;;;;;5052651;28;20917;-45
2022/09/29 01:05:08;;;;;;;10.73;8.50;;;;;;;;;;5053389;28;20509;-44
2022/09/29 01:07:34;;;;;;;10.83;8.07;;;;;;;;;;5052957;28;20525;-44
2022/09/29 01:10:01;;;;;;;9.00;8.10;;;;;;;;;;5053264;28;20478;-44
2022/09/29 01:12:29;;;;;;;10.37;8.60;;;;;;;;;;5051215;28;20442;-44
2022/09/29 01:14:55;;;;;;;8.13;7.33;;;;;;;;;;5052877;28;20470;-44
2022/09/29 01:17:22;;;;;;;8.33;7.53;;;;;;;;;;5051072;28;20526;-44
2022/09/29 01:19:52;;;;;;;8.80;7.90;;;;;;;;;;5052762;28;20534;-44
2022/09/29 01:22:25;;;;;;;9.93;8.93;;;;;;;;;;5050899;28;20442;-44
2022/09/29 01:24:58;;;;;;;9.23;8.23;;;;;;;;;;5051006;28;20439;-44
2022/09/29 01:27:30;;;;;;;9.30;8.17;;;;;;;;;;5051920;28;20518;-44
2022/09/29 01:30:05;;;;;;;8.63;7.73;;;;;;;;;;5051641;28;20475;-44
2022/09/29 01:32:42;;;;;;;10.77;8.50;;;;;;;;;;5050680;28;21054;-44
2022/09/29 01:35:10;;;;;;;9.00;8.17;;;;;;;;;;5051514;28;20780;-44
2022/09/29 01:37:42;;;;;;;8.17;7.33;;;;;;;;;;5050014;28;20682;-44
2022/09/29 01:40:10;;;;;;;8.60;7.70;;;;;;;;;;5052338;28;20550;-44
2022/09/29 01:42:38;;;;;;;9.03;8.10;;;;;;;;;;5050368;28;20438;-44
2022/09/29 01:45:11;;;;;;;9.23;8.20;;;;;;;;;;5052071;28;20446;-44
2022/09/29 01:47:40;;;;;;;8.57;7.77;;;;;;;;;;5051967;28;20505;-44
2022/09/29 01:50:10;;;;;;;11.67;8.23;;;;;;;;;;5052063;28;20499;-44
2022/09/29 01:52:40;;;;;;;8.53;7.70;;;;;;;;;;5049938;28;20451;-44
2022/09/29 01:55:07;;;;;;;10.50;9.20;;;;;;;;;;5050345;28;20431;-44
2022/09/29 01:57:36;;;;;;;9.50;8.50;;;;;;;;;;5051927;28;20434;-44
2022/09/29 02:00:07;;;;;;;11.47;10.20;;;;;;;;;;5051851;28;20431;-44
2022/09/29 02:02:37;;;;;;;12.67;9.67;;;;;;;;;;5049720;28;20422;-44
2022/09/29 02:05:04;;;;;;;11.03;9.90;;;;;;;;;;5051776;28;20545;-44
2022/09/29 02:07:34;;;;;;;13.90;10.77;;;;;;;;;;5048694;28;20821;-44
2022/09/29 02:10:02;;;;;;;15.07;10.80;;;;;;;;;;5049870;28;20467;-44
2022/09/29 02:12:30;;;;;;;12.03;10.40;;;;;;;;;;5051271;28;20454;-44
2022/09/29 02:14:56;;;;;;;14.87;10.67;;;;;;;;;;5051749;28;20445;-44
2022/09/29 02:17:26;;;;;;;11.80;10.53;;;;;;;;;;5049969;28;20847;-44
2022/09/29 02:19:53;;;;;;;12.87;11.07;;;;;;;;;;5050916;28;20438;-44
2022/09/29 02:22:19;;;;;;;12.17;10.30;;;;;;;;;;5047957;28;20453;-44
2022/09/29 02:24:47;;;;;;;13.57;11.03;;;;;;;;;;5051247;28;20451;-44
2022/09/29 02:27:13;;;;;;;15.07;11.77;;;;;;;;;;5049941;28;20451;-44
2022/09/29 02:29:39;;;;;;;12.77;11.00;;;;;;;;;;5050583;28;20443;-44
2022/09/29 02:32:06;;;;;;;12.37;10.60;;;;;;;;;;5051038;28;20478;-44
2022/09/29 02:34:35;;;;;;;12.23;10.60;;;;;;;;;;5049519;28;20435;-43
2022/09/29 02:37:04;;;;;;;13.97;10.77;;;;;;;;;;5049390;28;20435;-43
2022/09/29 02:39:35;;;;;;;13.23;11.60;;;;;;;;;;5050966;28;20523;-44
2022/09/29 02:42:07;;;;;;;14.10;11.27;;;;;;;;;;5049100;28;20431;-43
2022/09/29 02:44:40;;;;;;;12.60;10.13;;;;;;;;;;5048642;28;20856;-44
2022/09/29 02:47:16;;;;;;;13.43;11.27;;;;;;;;;;5050833;28;20427;-44
2022/09/29 02:49:49;;;;;;;11.80;10.63;;;;;;;;;;5050900;28;20454;-44
2022/09/29 02:52:23;;;;;;;12.20;10.90;;;;;;;;;;5049510;28;20443;-44
2022/09/29 02:54:55;;;;;;;14.00;11.57;;;;;;;;;;5049117;28;20798;-43
2022/09/29 02:57:25;;;;;;;13.97;11.23;;;;;;;;;;5048943;28;20474;-44
2022/09/29 02:59:56;;;;;;;13.57;11.30;;;;;;;;;;5048330;28;20446;-44
2022/09/29 03:02:23;;;;;;;18.07;12.47;;;;;;;;;;5050854;28;20966;-44
2022/09/29 03:04:49;;;;;;;15.77;12.90;;;;;;;;;;5051227;28;20619;-44
2022/09/29 03:07:15;;;;;;;14.10;11.87;;;;;;;;;;5049104;28;20541;-44
2022/09/29 03:09:42;;;;;;;14.80;11.83;;;;;;;;;;5050859;28;20450;-44
2022/09/29 03:12:08;;;;;;;16.33;12.27;;;;;;;;;;5051096;28;20432;-44
2022/09/29 03:14:35;;;;;;;16.73;13.23;;;;;;;;;;5050681;28;20592;-44
2022/09/29 03:17:02;;;;;;;15.37;12.60;;;;;;;;;;5050980;28;21145;-44
2022/09/29 03:19:28;;;;;;;21.40;13.20;;;;;;;;;;5053489;28;20450;-43
2022/09/29 03:21:54;;;;;;;12.20;10.90;;;;;;;;;;5054796;28;20443;-44
2022/09/29 03:24:20;;;;;;;13.73;11.90;;;;;;;;;;5055136;28;20591;-44
2022/09/29 03:26:46;;;;;;;12.87;10.43;;;;;;;;;;5054990;28;20470;-44
2022/09/29 03:29:12;;;;;;;12.73;10.90;;;;;;;;;;5054873;28;20438;-44
2022/09/29 03:31:40;;;;;;;13.10;10.37;;;;;;;;;;5052381;28;21057;-44
2022/09/29 03:34:06;;;;;;;11.63;10.43;;;;;;;;;;5054856;28;20203;-44
2022/09/29 03:36:32;;;;;;;13.20;11.13;;;;;;;;;;5054596;28;20491;-43
2022/09/29 03:38:58;;;;;;;11.57;10.37;;;;;;;;;;5054839;28;20219;-44
2022/09/29 03:41:24;;;;;;;12.00;10.17;;;;;;;;;;5054773;28;20431;-44
2022/09/29 03:43:50;;;;;;;12.37;9.90;;;;;;;;;;5054656;28;20446;-44
2022/09/29 03:46:17;;;;;;;11.47;10.27;;;;;;;;;;5054936;28;20560;-44
2022/09/29 03:48:44;;;;;;;10.43;9.40;;;;;;;;;;5054483;28;20451;-44
2022/09/29 03:51:11;;;;;;;11.40;10.20;;;;;;;;;;5054447;28;20470;-44
2022/09/29 03:53:37;;;;;;;12.23;10.73;;;;;;;;;;5054453;28;20917;-44
2022/09/29 03:56:04;;;;;;;10.90;9.73;;;;;;;;;;5054110;28;20445;-43
2022/09/29 03:58:30;;;;;;;11.43;10.23;;;;;;;;;;5054161;28;20440;-44
2022/09/29 04:00:56;;;;;;;11.13;10.00;;;;;;;;;;5054253;28;20453;-44
2022/09/29 04:03:22;;;;;;;11.87;10.60;;;;;;;;;;5054160;28;20941;-44
2022/09/29 04:05:49;;;;;;;12.13;10.77;;;;;;;;;;5054080;28;20457;-44
2022/09/29 04:08:16;;;;;;;10.43;9.13;;;;;;;;;;5054070;28;20713;-44
2022/09/29 04:10:42;;;;;;;9.73;8.73;;;;;;;;;;5054230;28;20478;-44
2022/09/29 04:13:08;;;;;;;11.00;9.90;;;;;;;;;;5054230;28;20441;-44
2022/09/29 04:15:34;;;;;;;12.20;10.77;;;;;;;;;;5054216;28;20446;-44
2022/09/29 04:18:00;;;;;;;12.23;9.83;;;;;;;;;;5053918;28;20443;-45
2022/09/29 04:20:26;;;;;;;11.60;10.37;;;;;;;;;;5054122;28;20476;-45
2022/09/29 04:22:54;;;;;;;12.20;10.80;;;;;;;;;;5053991;28;20438;-45
2022/09/29 04:25:20;;;;;;;12.40;11.13;;;;;;;;;;5053849;28;20470;-44
2022/09/29 04:27:46;;;;;;;19.37;12.17;;;;;;;;;;5053891;28;20435;-44
2022/09/29 04:30:12;;;;;;;13.53;12.03;;;;;;;;;;5052535;28;20509;-44
2022/09/29 04:32:38;;;;;;;13.97;11.90;;;;;;;;;;5052456;28;20569;-44
2022/09/29 04:35:04;;;;;;;13.50;12.07;;;;;;;;;;5053809;28;20474;-45
2022/09/29 04:37:30;;;;;;;14.90;12.33;;;;;;;;;;5053823;28;20465;-44
2022/09/29 04:39:58;;;;;;;14.27;12.77;;;;;;;;;;5054056;28;20493;-45
2022/09/29 04:42:24;;;;;;;33.90;14.37;;;;;;;;;;5053673;28;20431;-45
2022/09/29 04:44:50;;;;;;;17.07;14.77;;;;;;;;;;5053756;28;20812;-44
2022/09/29 04:47:16;;;;;;;25.20;15.23;;;;;;;;;;5052720;28;20526;-44
2022/09/29 04:49:42;;;;;;;23.10;16.23;;;;;;;;;;5051628;28;20435;-44
2022/09/29 04:52:09;;;;;;;22.67;16.20;;;;;;;;;;5051939;28;20434;-44
2022/09/29 04:54:35;;;;;;;18.53;15.23;;;;;;;;;;5052765;28;20453;-44
2022/09/29 04:57:03;;;;;;;16.73;13.33;;;;;;;;;;5053647;28;20434;-44
2022/09/29 04:59:29;;;;;;;16.80;14.33;;;;;;;;;;5053551;28;20439;-45
2022/09/29 05:01:55;;;;;;;27.43;14.13;;;;;;;;;;5053585;28;20466;-44
2022/09/29 05:04:21;;;;;;;22.63;14.63;;;;;;;;;;5054088;28;20953;-44
2022/09/29 05:06:47;;;;;;;14.53;12.93;;;;;;;;;;5053578;28;20449;-44
2022/09/29 05:09:13;;;;;;;16.10;13.27;;;;;;;;;;5053550;28;20454;-44
2022/09/29 05:11:39;;;;;;;15.33;13.57;;;;;;;;;;5052873;28;20985;-44
2022/09/29 05:14:07;;;;;;;16.40;13.17;;;;;;;;;;5054221;28;20196;-44
2022/09/29 05:16:33;;;;;;;19.83;13.80;;;;;;;;;;5053335;28;20819;-44
2022/09/29 05:18:59;;;;;;;26.57;14.40;;;;;;;;;;5050773;28;20508;-45
2022/09/29 05:21:25;;;;;;;26.13;14.57;;;;;;;;;;5052915;28;20460;-44
2022/09/29 05:23:51;;;;;;;15.63;13.97;;;;;;;;;;5052977;28;20554;-44
2022/09/29 05:26:18;;;;;;;15.97;13.60;;;;;;;;;;5054713;28;20446;-45
2022/09/29 05:28:45;;;;;;;15.97;14.27;;;;;;;;;;5054734;28;20971;-45
2022/09/29 05:31:13;;;;;;;28.43;24.37;;;;;;;;;;5053461;28;20533;-44
2022/09/29 05:33:39;;;;;;;33.30;24.37;;;;;;;;;;5052639;28;20968;-45
2022/09/29 05:36:06;;;;;;;25.33;19.87;;;;;;;;;;5053523;28;20445;-45
2022/09/29 05:38:32;;;;;;;26.97;20.13;;;;;;;;;;5052414;28;20435;-45
2022/09/29 05:40:58;;;;;;;20.73;16.83;;;;;;;;;;5050793;28;20454;-44
2022/09/29 05:43:24;;;;;;;21.83;17.47;;;;;;;;;;5052899;28;20431;-45
2022/09/29 05:45:50;;;;;;;19.97;17.47;;;;;;;;;;5051968;28;20489;-44
2022/09/29 05:48:17;;;;;;;19.70;17.43;;;;;;;;;;5052152;28;20433;-44
2022/09/29 05:50:44;;;;;;;18.00;15.93;;;;;;;;;;5052434;28;20836;-45
2022/09/29 05:53:10;;;;;;;17.93;15.33;;;;;;;;;;5052532;28;20509;-45
2022/09/29 05:55:36;;;;;;;16.83;15.07;;;;;;;;;;5052195;28;20450;-45
2022/09/29 05:58:02;;;;;;;18.93;16.43;;;;;;;;;;5052511;28;20427;-44
2022/09/29 06:00:30;;;;;;;18.23;16.33;;;;;;;;;;5052352;28;20431;-43
2022/09/29 06:02:57;;;;;;;17.53;15.47;;;;;;;;;;5052329;28;20439;-44
2022/09/29 06:05:24;;;;;;;22.43;16.90;;;;;;;;;;5051590;28;20435;-43
2022/09/29 06:07:51;;;;;;;22.33;19.20;;;;;;;;;;5051597;28;20521;-43
2022/09/29 06:10:17;;;;;;;26.37;20.73;;;;;;;;;;5050068;28;20489;-44
2022/09/29 06:12:44;;;;;;;23.37;20.30;;;;;;;;;;5049529;28;20463;-44
2022/09/29 06:15:10;;;;;;;26.37;21.30;;;;;;;;;;5050204;28;20450;-43
2022/09/29 06:17:37;;;;;;;26.37;20.27;;;;;;;;;;5050718;28;20431;-43
2022/09/29 06:20:04;;;;;;;35.27;21.63;;;;;;;;;;5051604;28;20854;-45
2022/09/29 06:22:31;;;;;;;25.60;19.83;;;;;;;;;;5051667;28;20439;-44
2022/09/29 06:24:58;;;;;;;27.37;20.47;;;;;;;;;;5051797;28;20537;-43
2022/09/29 06:27:24;;;;;;;27.33;20.80;;;;;;;;;;5049807;28;20517;-43
2022/09/29 06:29:50;;;;;;;26.40;21.80;;;;;;;;;;5051445;28;20435;-44
2022/09/29 06:32:16;;;;;;;27.17;21.80;;;;;;;;;;5051527;28;20592;-43
2022/09/29 06:37:33;;;;;;;25.70;21.47;;;;;;;;;;5051803;28;20983;-43
2022/09/29 06:40:01;;;;;;;29.83;22.43;;;;;;;;;;5051453;28;20446;-43
2022/09/29 06:42:27;;;;;;;29.27;23.23;;;;;;;;;;5049451;28;20940;-43
2022/09/29 06:44:53;;;;;;;32.07;23.33;;;;;;;;;;5050449;28;20427;-43
2022/09/29 06:47:20;;;;;;;30.37;23.60;;;;;;;;;;5051845;28;20951;-44
2022/09/29 06:49:46;;;;;;;33.27;24.93;;;;;;;;;;5051240;28;20932;-43
2022/09/29 06:52:12;;;;;;;33.40;24.33;;;;;;;;;;5051195;28;21026;-43
2022/09/29 06:54:38;;;;;;;32.50;24.33;;;;;;;;;;5049916;28;20527;-43
2022/09/29 06:57:05;;;;;;;30.00;25.17;;;;;;;;;;5051243;28;20526;-43
2022/09/29 06:59:31;;;;;;;30.20;24.07;;;;;;;;;;5051017;28;20243;-44
2022/09/29 07:01:57;;;;;;;32.07;25.00;;;;;;;;;;5051396;28;20489;-44
2022/09/29 07:04:24;;;;;;;29.53;24.87;;;;;;;;;;5049817;28;20197;-45
2022/09/29 07:06:51;;;;;;;31.07;25.97;;;;;;;;;;5051057;28;20525;-44
2022/09/29 07:09:17;;;;;;;30.10;24.43;;;;;;;;;;5051307;28;20441;-44
2022/09/29 07:11:45;;;;;;;33.20;27.00;;;;;;;;;;5048905;28;20236;-44
2022/09/29 07:14:13;;;;;;;32.10;27.30;;;;;;;;;;5051153;28;20203;-44
2022/09/29 07:16:39;;;;;;;30.73;24.00;;;;;;;;;;5051094;28;20773;-44
2022/09/29 07:19:05;;;;;;;30.83;26.83;;;;;;;;;;5051441;28;20223;-44
2022/09/29 07:21:31;;;;;;;32.77;25.17;;;;;;;;;;5050778;28;20196;-44
2022/09/29 07:23:57;;;;;;;30.43;24.57;;;;;;;;;;5050985;28;20200;-44
2022/09/29 07:26:23;;;;;;;30.27;26.27;;;;;;;;;;5051227;28;20206;-44
2022/09/29 07:28:49;;;;;;;28.07;25.07;;;;;;;;;;5049240;28;20274;-44
2022/09/29 07:31:18;;;;;;;27.07;23.27;;;;;;;;;;5050432;28;20798;-44
2022/09/29 07:33:44;;;;;;;27.03;23.83;;;;;;;;;;5047789;28;20246;-44
2022/09/29 07:36:11;;;;;;;27.30;24.40;;;;;;;;;;5050808;28;20676;-44
2022/09/29 07:38:37;;;;;;;30.20;24.77;;;;;;;;;;5051033;28;20572;-44
2022/09/29 07:41:03;;;;;;;26.63;22.13;;;;;;;;;;5050735;28;20839;-44
2022/09/29 07:43:30;;;;;;;26.87;23.23;;;;;;;;;;5049096;28;20279;-44
2022/09/29 07:45:56;;;;;;;27.37;24.03;;;;;;;;;;5050610;28;20299;-44
2022/09/29 07:48:24;;;;;;;26.87;24.00;;;;;;;;;;5048417;28;20204;-44
2022/09/29 07:50:51;;;;;;;25.30;21.93;;;;;;;;;;5044923;28;20279;-44
2022/09/29 07:53:17;;;;;;;24.70;22.10;;;;;;;;;;5030639;28;20569;-44
2022/09/29 07:55:43;;;;;;;24.93;22.33;;;;;;;;;;5029932;28;20225;-44
2022/09/29 07:58:09;;;;;;;23.90;19.87;;;;;;;;;;5030370;28;20205;-44
2022/09/29 08:00:35;;;;;;;22.50;19.00;;;;;;;;;;5029751;28;20293;-47
2022/09/29 08:03:02;;;;;;;21.53;19.23;;;;;;;;;;5030191;28;20704;-44
2022/09/29 08:05:32;;;;;;;22.97;20.60;;;;;;;;;;5032823;28;20214;-44
2022/09/29 08:07:58;;;;;;;22.53;20.07;;;;;;;;;;5033684;28;20232;-44
2022/09/29 08:10:26;;;;;;;21.70;19.27;;;;;;;;;;5033949;28;20221;-44
2022/09/29 08:12:52;;;;;;;21.47;19.27;;;;;;;;;;5033923;28;20284;-44
2022/09/29 08:15:18;;;;;;;20.73;18.60;;;;;;;;;;5030797;28;20205;-44
2022/09/29 08:17:44;;;;;;;20.50;18.30;;;;;;;;;;5033119;28;20197;-44
2022/09/29 08:20:10;;;;;;;21.60;19.30;;;;;;;;;;5034253;28;20207;-44
2022/09/29 08:22:38;;;;;;;20.33;18.20;;;;;;;;;;5032124;28;20235;-44
2022/09/29 08:25:04;;;;;;;18.90;16.90;;;;;;;;;;5033574;28;20204;-44
2022/09/29 08:27:30;;;;;;;21.90;17.73;;;;;;;;;;5033825;28;20211;-45
2022/09/29 08:29:57;;;;;;;19.07;17.17;;;;;;;;;;5033345;28;20211;-45
2022/09/29 08:32:24;;;;;;;21.00;18.03;;;;;;;;;;5049607;28;20236;-46
2022/09/29 08:34:50;;;;;;;19.83;17.73;;;;;;;;;;5053418;28;20202;-45
2022/09/29 08:37:16;;;;;;;20.07;17.90;;;;;;;;;;5049837;28;20200;-46
2022/09/29 08:39:44;;;;;;;18.50;16.60;;;;;;;;;;5052262;28;20212;-46
2022/09/29 08:42:13;;;;;;;19.00;17.07;;;;;;;;;;5051003;28;20235;-46
2022/09/29 08:44:40;;;;;;;18.50;16.60;;;;;;;;;;5051456;28;20228;-46
2022/09/29 08:47:12;;;;;;;19.50;17.50;;;;;;;;;;5051492;28;20200;-46
2022/09/29 08:49:41;;;;;;;17.63;15.80;;;;;;;;;;5053626;28;20227;-46
2022/09/29 08:52:11;;;;;;;17.07;15.47;;;;;;;;;;5053397;28;20227;-46
2022/09/29 08:54:39;;;;;;;18.20;16.40;;;;;;;;;;5052869;28;20718;-46
2022/09/29 08:57:14;;;;;;;19.80;17.70;;;;;;;;;;5050948;28;20678;-46
2022/09/29 08:59:41;;;;;;;20.93;16.80;;;;;;;;;;5053205;28;20207;-46
2022/09/29 09:02:19;;;;;;;19.77;16.17;;;;;;;;;;5052938;28;20192;-46
2022/09/29 09:04:51;;;;;;;16.60;14.80;;;;;;;;;;5051413;28;20196;-46
2022/09/29 09:07:20;;;;;;;16.33;13.70;;;;;;;;;;5052784;28;20275;-46
2022/09/29 09:09:54;;;;;;;16.07;14.37;;;;;;;;;;5053481;28;20216;-46
2022/09/29 09:12:27;;;;;;;15.67;14.07;;;;;;;;;;5053195;28;20231;-46
2022/09/29 09:15:01;;;;;;;14.93;13.30;;;;;;;;;;5052924;28;20207;-46
2022/09/29 09:17:34;;;;;;;15.13;13.53;;;;;;;;;;5051939;28;20211;-45
2022/09/29 09:20:04;;;;;;;15.73;14.20;;;;;;;;;;5052351;28;20200;-46
2022/09/29 09:22:33;;;;;;;16.37;14.57;;;;;;;;;;5052465;28;20196;-46
2022/09/29 09:25:01;;;;;;;16.07;14.50;;;;;;;;;;5050375;28;20204;-46
2022/09/29 09:27:32;;;;;;;16.17;14.53;;;;;;;;;;5053249;28;20197;-46
2022/09/29 09:30:02;;;;;;;15.53;14.03;;;;;;;;;;5052695;28;20208;-47
2022/09/29 09:32:29;;;;;;;14.80;12.93;;;;;;;;;;5052593;28;20630;-46
2022/09/29 09:34:57;;;;;;;15.63;14.03;;;;;;;;;;5051408;28;20658;-46
2022/09/29 09:37:26;;;;;;;14.80;13.37;;;;;;;;;;5052204;28;20200;-46
2022/09/29 09:39:56;;;;;;;12.93;11.63;;;;;;;;;;5053382;28;20207;-46
2022/09/29 09:42:24;;;;;;;13.50;12.17;;;;;;;;;;5053139;28;20197;-46
2022/09/29 09:44:52;;;;;;;13.90;12.40;;;;;;;;;;5053015;28;20196;-46
2022/09/29 09:47:23;;;;;;;11.97;10.83;;;;;;;;;;5053305;28;20263;-46
2022/09/29 09:49:51;;;;;;;13.60;12.10;;;;;;;;;;5052889;28;20193;-46
2022/09/29 09:52:19;;;;;;;12.37;11.17;;;;;;;;;;5052816;28;20224;-46
2022/09/29 09:54:47;;;;;;;13.73;12.37;;;;;;;;;;5052789;28;20611;-46
2022/09/29 09:57:20;;;;;;;12.97;11.70;;;;;;;;;;5052923;28;20199;-46
2022/09/29 09:59:54;;;;;;;13.27;10.27;;;;;;;;;;5052763;28;20224;-47
2022/09/29 10:02:23;;;;;;;12.80;10.50;;;;;;;;;;5052798;28;20199;-46
2022/09/29 10:04:50;;;;;;;11.57;10.37;;;;;;;;;;5052587;28;20212;-46
2022/09/29 10:07:17;;;;;;;11.27;10.07;;;;;;;;;;5052673;28;20220;-46
2022/09/29 10:09:43;;;;;;;12.00;10.20;;;;;;;;;;5052644;28;20236;-46
2022/09/29 10:12:14;;;;;;;10.30;9.27;;;;;;;;;;5050491;28;20267;-46
2022/09/29 10:14:43;;;;;;;8.40;7.63;;;;;;;;;;5051972;28;20725;-46
2022/09/29 10:17:12;;;;;;;9.63;8.63;;;;;;;;;;5052237;28;20203;-46
2022/09/29 10:19:59;;;;;;;8.80;7.93;;;;;;;;;;5051467;28;20294;-46
2022/09/29 10:22:26;;;;;;;8.23;7.43;;;;;;;;;;5051943;28;20193;-46
2022/09/29 10:24:55;;;;;;;9.30;7.63;;;;;;;;;;5050645;28;20265;-46
2022/09/29 10:27:24;;;;;;;7.77;7.07;;;;;;;;;;5051564;28;20616;-46
2022/09/29 10:29:51;;;;;;;9.07;7.60;;;;;;;;;;5051216;28;20242;-46
2022/09/29 10:32:22;;;;;;;7.73;7.03;;;;;;;;;;5051655;28;20781;-46
2022/09/29 10:34:49;;;;;;;7.97;7.20;;;;;;;;;;5051712;28;20196;-46
2022/09/29 10:37:24;;;;;;;7.60;6.87;;;;;;;;;;5051843;28;20222;-46
2022/09/29 10:39:51;;;;;;;6.80;6.20;;;;;;;;;;5051775;28;20246;-46
2022/09/29 10:42:20;;;;;;;6.90;6.30;;;;;;;;;;5051898;28;20282;-46
2022/09/29 10:44:50;;;;;;;6.47;5.97;;;;;;;;;;5051740;28;20197;-46
2022/09/29 10:47:16;;;;;;;6.30;5.80;;;;;;;;;;5051862;28;20640;-47
2022/09/29 10:49:42;;;;;;;6.43;5.73;;;;;;;;;;5051488;28;20283;-46
2022/09/29 10:52:19;;;;;;;7.40;6.03;;;;;;;;;;5051495;28;20241;-46
2022/09/29 10:54:54;;;;;;;7.27;5.90;;;;;;;;;;5051454;28;20490;-47
2022/09/29 10:57:24;;;;;;;6.43;5.83;;;;;;;;;;5051601;28;20256;-46
2022/09/29 10:59:52;;;;;;;5.93;5.43;;;;;;;;;;5051409;28;20201;-47
2022/09/29 11:02:21;;;;;;;5.37;4.87;;;;;;;;;;5051511;28;20272;-46
2022/09/29 11:04:47;;;;;;;5.37;4.90;;;;;;;;;;5051397;28;20196;-46
2022/09/29 11:07:14;;;;;;;6.07;5.53;;;;;;;;;;5051502;28;20226;-46
2022/09/29 11:09:40;;;;;;;5.10;4.53;;;;;;;;;;5051000;28;20223;-46
2022/09/29 11:12:24;;;;;;;4.77;4.27;;;;;;;;;;5050693;28;20585;-46
2022/09/29 11:14:50;;;;;;;5.13;4.63;;;;;;;;;;5051224;28;20207;-47
2022/09/29 11:17:21;;;;;;;5.60;4.57;;;;;;;;;;5051263;28;20209;-46
2022/09/29 11:19:48;;;;;;;4.87;4.37;;;;;;;;;;5051431;28;20211;-46
2022/09/29 11:22:29;;;;;;;4.30;3.90;;;;;;;;;;5051181;28;20200;-47
2022/09/29 11:25:10;;;;;;;4.03;3.67;;;;;;;;;;5051177;28;20199;-47
2022/09/29 11:27:42;;;;;;;3.73;3.43;;;;;;;;;;5051317;28;20235;-46
2022/09/29 11:30:10;;;;;;;3.63;3.33;;;;;;;;;;5051180;28;20196;-47
2022/09/29 11:32:43;;;;;;;7.93;4.00;;;;;;;;;;5050501;28;20680;-46
2022/09/29 11:35:26;;;;;;;4.20;3.70;;;;;;;;;;5050886;28;20724;-46
2022/09/29 11:38:03;;;;;;;4.17;3.43;;;;;;;;;;5051443;28;20282;-45
2022/09/29 11:40:36;;;;;;;3.93;3.53;;;;;;;;;;5053639;28;20208;-45
2022/09/29 11:43:14;;;;;;;5.53;3.97;;;;;;;;;;5055377;28;20208;-45
2022/09/29 11:45:44;;;;;;;3.80;3.37;;;;;;;;;;5055071;28;20205;-46
2022/09/29 11:48:25;;;;;;;4.43;3.53;;;;;;;;;;5055054;28;20185;-46
2022/09/29 11:50:57;;;;;;;4.10;3.70;;;;;;;;;;5054626;28;20214;-46
2022/09/29 11:53:30;;;;;;;4.07;3.50;;;;;;;;;;5054714;28;20623;-46
2022/09/29 11:56:01;;;;;;;4.27;3.50;;;;;;;;;;5054830;28;20697;-47
2022/09/29 11:58:32;;;;;;;3.60;3.30;;;;;;;;;;5054497;28;20736;-46
2022/09/29 12:01:04;;;;;;;3.20;3.00;;;;;;;;;;5054622;28;20215;-49
2022/09/29 12:03:35;;;;;;;3.30;3.00;;;;;;;;;;5054543;28;20262;-46
2022/09/29 12:06:12;;;;;;;3.63;3.33;;;;;;;;;;5054574;28;20595;-46
2022/09/29 12:08:47;;;;;;;3.97;3.60;;;;;;;;;;5054579;28;20274;-46
2022/09/29 12:11:16;;;;;;;4.00;3.60;;;;;;;;;;5054279;28;20232;-46
2022/09/29 12:13:50;;;;;;;4.77;3.40;;;;;;;;;;5054632;28;20200;-46
2022/09/29 12:16:18;;;;;;;5.63;2.97;;;;;;;;;;5054474;28;20203;-46
2022/09/29 12:18:47;;;;;;;3.37;3.03;;;;;;;;;;5054425;28;20199;-46
2022/09/29 12:21:15;;;;;;;2.87;2.57;;;;;;;;;;5054327;28;20216;-46
2022/09/29 12:23:43;;;;;;;3.07;2.80;;;;;;;;;;5054053;28;20299;-46
2022/09/29 12:26:10;;;;;;;3.97;2.70;;;;;;;;;;5053843;28;20199;-46
2022/09/29 12:28:39;;;;;;;2.60;2.40;;;;;;;;;;5054317;28;20231;-46
2022/09/29 12:31:09;;;;;;;2.77;2.20;;;;;;;;;;5053850;28;20239;-46
2022/09/29 12:33:37;;;;;;;2.50;2.30;;;;;;;;;;5053885;28;20291;-46
2022/09/29 12:36:42;;;;;;;2.50;2.10;;;;;;;;;;5054058;28;20206;-46
2022/09/29 12:39:02;;;;;;;2.47;2.00;;;;;;;;;;5053901;28;20203;-46
2022/09/29 12:41:30;;;;;;;2.10;1.90;;;;;;;;;;5053628;28;20203;-46
2022/09/29 12:44:00;;;;;;;2.40;2.07;;;;;;;;;;5053300;28;20231;-46
2022/09/29 12:46:34;;;;;;;2.33;2.00;;;;;;;;;;5046814;28;20203;-46
2022/09/29 12:49:04;;;;;;;3.70;2.20;;;;;;;;;;5053004;28;20215;-45
2022/09/29 12:51:32;;;;;;;2.43;1.80;;;;;;;;;;5052704;28;20222;-45
2022/09/29 12:54:13;;;;;;;3.00;2.17;;;;;;;;;;5053389;28;20204;-45
2022/09/29 12:56:40;;;;;;;3.00;2.20;;;;;;;;;;5052889;28;20587;-45
2022/09/29 12:59:12;;;;;;;3.80;2.40;;;;;;;;;;5053013;28;20207;-46
2022/09/29 13:01:39;;;;;;;2.20;2.00;;;;;;;;;;5052184;28;20196;-45
2022/09/29 13:04:12;;;;;;;2.67;2.17;;;;;;;;;;5053039;28;20215;-45
2022/09/29 13:06:46;;;;;;;1.93;1.70;;;;;;;;;;5053373;28;20287;-45
2022/09/29 13:09:21;;;;;;;1.53;1.40;;;;;;;;;;5052910;28;20797;-45
2022/09/29 13:12:01;;;;;;;2.33;1.80;;;;;;;;;;5052289;28;20318;-45
2022/09/29 13:14:35;;;;;;;2.67;1.80;;;;;;;;;;5052352;28;20200;-45
2022/09/29 13:17:10;;;;;;;1.30;1.20;;;;;;;;;;5052810;28;20724;-45
2022/09/29 13:19:44;;;;;;;1.20;1.10;;;;;;;;;;5053144;28;20282;-46
2022/09/29 13:22:32;;;;;;;0.90;0.80;;;;;;;;;;5053082;28;20674;-45
2022/09/29 13:25:01;;;;;;;1.83;1.40;;;;;;;;;;5052843;28;20298;-46
2022/09/29 13:27:30;;;;;;;1.40;1.30;;;;;;;;;;5052996;28;20207;-46
2022/09/29 13:29:59;;;;;;;2.17;1.60;;;;;;;;;;5052715;28;20267;-46
2022/09/29 13:32:27;;;;;;;1.60;1.50;;;;;;;;;;5052746;28;20239;-46
2022/09/29 13:34:54;;;;;;;2.40;1.63;;;;;;;;;;5052527;28;20569;-46
2022/09/29 13:37:21;;;;;;;3.53;1.90;;;;;;;;;;5052715;28;20228;-46
2022/09/29 13:39:52;;;;;;;3.40;1.80;;;;;;;;;;5052571;28;20200;-46
2022/09/29 13:42:26;;;;;;;2.70;1.80;;;;;;;;;;5052596;28;20203;-46
2022/09/29 13:45:07;;;;;;;2.33;2.03;;;;;;;;;;5052708;28;20200;-46
2022/09/29 13:47:34;;;;;;;2.53;1.90;;;;;;;;;;5052538;28;20201;-46
2022/09/29 13:50:02;;;;;;;2.63;2.00;;;;;;;;;;5051768;28;20615;-45
2022/09/29 13:52:30;;;;;;;3.20;2.50;;;;;;;;;;5052162;28;20282;-45
2022/09/29 13:55:16;;;;;;;3.13;2.83;;;;;;;;;;5072704;28;20198;-45
2022/09/29 13:57:51;;;;;;;4.97;3.50;;;;;;;;;;5072576;28;20222;-45
2022/09/29 14:00:19;;;;;;;3.90;3.50;;;;;;;;;;5072484;28;20214;-45
2022/09/29 14:02:47;;;;;;;4.63;3.80;;;;;;;;;;5072305;28;20237;-45
2022/09/29 14:05:31;;;;;;;4.63;3.23;;;;;;;;;;5072447;28;20231;-45
2022/09/29 14:08:11;;;;;;;4.97;3.90;;;;;;;;;;5072134;28;20765;-45
2022/09/29 14:10:40;;;;;;;4.50;3.50;;;;;;;;;;5070486;28;20237;-45
2022/09/29 14:13:11;;;;;;;4.00;3.43;;;;;;;;;;5051212;28;20287;-45
2022/09/29 14:15:40;;;;;;;3.50;3.20;;;;;;;;;;5051927;28;20209;-45
2022/09/29 14:18:14;;;;;;;3.67;3.30;;;;;;;;;;5051971;28;20204;-45
2022/09/29 14:20:57;;;;;;;4.10;3.43;;;;;;;;;;5051497;28;20201;-46
2022/09/29 14:23:37;;;;;;;4.50;2.70;;;;;;;;;;5051879;28;20587;-45
2022/09/29 14:26:04;;;;;;;2.83;2.57;;;;;;;;;;5050754;28;20629;-45
2022/09/29 14:28:38;;;;;;;3.50;3.17;;;;;;;;;;5052066;28;20258;-45
2022/09/29 14:31:17;;;;;;;3.57;2.80;;;;;;;;;;5051801;28;20229;-46
2022/09/29 14:33:43;;;;;;;2.47;2.27;;;;;;;;;;5051893;28;20198;-45
2022/09/29 14:36:11;;;;;;;5.30;2.40;;;;;;;;;;5051870;28;20206;-45
2022/09/29 14:38:40;;;;;;;3.20;2.70;;;;;;;;;;5051537;28;20216;-45
2022/09/29 14:41:18;;;;;;;3.70;2.53;;;;;;;;;;5051690;28;20204;-45